createdAt,value
2019-06-01T00:01:51.358Z,97.26
2019-06-01T00:04:20.058Z,97.17
2019-06-01T00:06:49.028Z,97.17
2019-06-01T00:09:17.773Z,97.41
2019-06-01T00:11:47.525Z,97.56
2019-06-01T00:14:16.421Z,97.48
2019-06-01T00:16:46.060Z,97.46
2019-06-01T00:19:15.236Z,97.58
2019-06-01T00:21:45.439Z,97.71
2019-06-01T00:24:14.455Z,97.62
2019-06-01T00:26:43.714Z,97.33
2019-06-01T00:29:12.544Z,97.37
2019-06-01T00:31:42.958Z,97.46
2019-06-01T00:34:12.071Z,97.53
2019-06-01T00:36:41.511Z,97.57
2019-06-01T00:39:10.674Z,97.95
2019-06-01T00:41:39.381Z,98.14
2019-06-01T00:44:08.351Z,98.04
2019-06-01T00:46:37.099Z,97.66
2019-06-01T00:49:06.237Z,97.40
2019-06-01T00:51:35.252Z,96.87
2019-06-01T00:54:04.403Z,97.07
2019-06-01T00:56:33.234Z,96.87
2019-06-01T00:59:02.208Z,96.64
2019-06-01T01:01:31.204Z,96.51
2019-06-01T01:03:59.889Z,96.43
2019-06-01T01:06:28.948Z,96.27
2019-06-01T01:08:57.550Z,95.94
2019-06-01T01:11:26.459Z,95.91
2019-06-01T01:13:55.458Z,95.96
2019-06-01T01:16:24.150Z,95.68
2019-06-01T01:18:53.832Z,95.54
2019-06-01T01:21:22.640Z,95.59
2019-06-01T01:23:52.950Z,95.63
2019-06-01T01:26:22.167Z,95.62
2019-06-01T01:28:51.053Z,95.27
2019-06-01T01:31:20.052Z,94.94
2019-06-01T01:33:49.361Z,95.08
2019-06-01T01:36:18.600Z,95.14
2019-06-01T01:38:48.251Z,94.88
2019-06-01T01:41:17.265Z,94.41
2019-06-01T01:43:45.948Z,94.40
2019-06-01T01:46:14.965Z,93.85
2019-06-01T01:48:43.614Z,93.65
2019-06-01T01:51:12.289Z,93.52
2019-06-01T01:53:40.925Z,93.33
2019-06-01T01:56:10.504Z,93.09
2019-06-01T01:58:39.142Z,93.35
2019-06-01T02:01:21.293Z,94.04
2019-06-01T02:03:38.519Z,94.19
2019-06-01T02:06:07.602Z,94.40
2019-06-01T02:08:36.601Z,94.35
2019-06-01T02:11:05.597Z,94.45
2019-06-01T02:13:34.784Z,94.49
2019-06-01T02:16:03.678Z,94.45
2019-06-01T02:18:32.336Z,94.42
2019-06-01T02:21:02.698Z,94.40
2019-06-01T02:23:31.589Z,94.28
2019-06-01T02:26:01.166Z,93.35
2019-06-01T02:28:30.803Z,92.91
2019-06-01T02:31:00.191Z,92.23
2019-06-01T02:33:29.609Z,92.30
2019-06-01T02:36:00.660Z,92.18
2019-06-01T02:38:29.438Z,92.25
2019-06-01T02:40:58.965Z,91.99
2019-06-01T02:43:28.360Z,91.51
2019-06-01T02:45:58.119Z,91.26
2019-06-01T02:48:27.154Z,91.14
2019-06-01T02:50:57.439Z,91.23
2019-06-01T02:53:26.670Z,91.14
2019-06-01T02:55:55.818Z,91.81
2019-06-01T02:58:24.540Z,91.42
2019-06-01T03:01:24.698Z,91.71
2019-06-01T03:03:57.421Z,92.33
2019-06-01T03:06:28.456Z,92.48
2019-06-01T03:08:59.739Z,92.62
2019-06-01T03:11:33.268Z,92.67
2019-06-01T03:14:02.549Z,91.97
2019-06-01T03:16:31.549Z,91.47
2019-06-01T03:19:01.974Z,90.68
2019-06-01T03:21:33.027Z,91.09
2019-06-01T03:24:06.163Z,91.40
2019-06-01T03:26:41.226Z,91.10
2019-06-01T03:29:13.921Z,91.18
2019-06-01T03:31:42.542Z,90.45
2019-06-01T03:34:12.147Z,90.38
2019-06-01T03:36:42.043Z,89.94
2019-06-01T03:39:12.881Z,89.21
2019-06-01T03:41:42.837Z,88.95
2019-06-01T03:44:12.972Z,89.17
2019-06-01T03:46:42.215Z,89.35
2019-06-01T03:49:11.955Z,88.83
2019-06-01T03:51:41.219Z,88.59
2019-06-01T03:54:10.174Z,88.73
2019-06-01T03:56:39.799Z,88.80
2019-06-01T03:59:09.330Z,88.99
2019-06-01T04:01:38.319Z,88.60
2019-06-01T04:04:07.319Z,87.27
2019-06-01T04:06:36.613Z,86.40
2019-06-01T04:09:07.742Z,86.20
2019-06-01T04:11:36.710Z,85.98
2019-06-01T04:14:06.180Z,85.69
2019-06-01T04:16:35.455Z,85.81
2019-06-01T04:19:04.349Z,85.50
2019-06-01T04:21:33.335Z,85.19
2019-06-01T04:24:02.554Z,85.05
2019-06-01T04:26:33.089Z,85.13
2019-06-01T04:29:02.364Z,84.68
2019-06-01T04:31:31.976Z,84.42
2019-06-01T04:34:00.615Z,84.58
2019-06-01T04:36:29.688Z,84.77
2019-06-01T04:38:58.490Z,84.31
2019-06-01T04:41:27.435Z,84.41
2019-06-01T04:43:56.082Z,84.50
2019-06-01T04:46:25.168Z,84.46
2019-06-01T04:48:54.115Z,84.50
2019-06-01T04:51:22.756Z,84.09
2019-06-01T04:53:51.697Z,83.64
2019-06-01T04:56:21.302Z,83.41
2019-06-01T04:58:49.909Z,83.64
2019-06-01T05:01:18.878Z,83.52
2019-06-01T05:03:47.872Z,83.51
2019-06-01T05:06:17.272Z,83.37
2019-06-01T05:08:46.140Z,83.36
2019-06-01T05:11:15.705Z,83.22
2019-06-01T05:13:44.768Z,81.89
2019-06-01T05:16:14.848Z,81.31
2019-06-01T05:18:43.982Z,81.13
2019-06-01T05:21:13.098Z,80.71
2019-06-01T05:23:42.071Z,80.45
2019-06-01T05:26:11.089Z,79.07
2019-06-01T05:28:40.069Z,79.45
2019-06-01T05:31:13.243Z,79.40
2019-06-01T05:33:39.347Z,78.29
2019-06-01T05:36:08.406Z,78.33
2019-06-01T05:38:37.777Z,77.93
2019-06-01T05:41:06.774Z,77.68
2019-06-01T05:43:35.969Z,77.41
2019-06-01T05:46:04.962Z,77.43
2019-06-01T05:48:34.161Z,76.27
2019-06-01T05:51:03.359Z,76.19
2019-06-01T05:53:32.359Z,75.26
2019-06-01T05:56:00.985Z,75.68
2019-06-01T05:58:30.218Z,74.73
2019-06-01T06:00:58.878Z,74.46
2019-06-01T06:03:39.870Z,74.14
2019-06-01T06:05:58.545Z,73.34
2019-06-01T06:08:27.442Z,72.54
2019-06-01T06:10:56.438Z,73.16
2019-06-01T06:13:25.633Z,72.31
2019-06-01T06:15:54.634Z,72.34
2019-06-01T06:18:23.306Z,73.24
2019-06-01T06:20:52.202Z,73.90
2019-06-01T06:23:22.626Z,73.75
2019-06-01T06:25:51.657Z,73.58
2019-06-01T06:28:20.842Z,73.78
2019-06-01T06:30:49.460Z,73.60
2019-06-01T06:33:19.361Z,71.73
2019-06-01T06:35:48.317Z,70.69
2019-06-01T06:38:17.880Z,69.74
2019-06-01T06:40:46.634Z,69.54
2019-06-01T06:43:20.085Z,70.04
2019-06-01T06:45:46.350Z,70.03
2019-06-01T06:48:15.034Z,69.14
2019-06-01T06:50:44.335Z,69.71
2019-06-01T06:53:25.380Z,69.37
2019-06-01T06:55:44.489Z,68.15
2019-06-01T06:58:13.534Z,68.59
2019-06-01T07:00:42.476Z,68.93
2019-06-01T07:03:11.106Z,67.84
2019-06-01T07:05:39.719Z,66.45
2019-06-01T07:08:08.383Z,66.71
2019-06-01T07:10:37.403Z,67.15
2019-06-01T07:13:06.100Z,67.44
2019-06-01T07:15:34.773Z,67.46
2019-06-01T07:18:03.425Z,66.24
2019-06-01T07:20:32.407Z,66.17
2019-06-01T07:23:01.378Z,67.44
2019-06-01T07:25:30.652Z,65.38
2019-06-01T07:27:59.952Z,64.21
2019-06-01T07:30:28.679Z,65.20
2019-06-01T07:32:57.742Z,65.08
2019-06-01T07:35:26.737Z,65.56
2019-06-01T07:37:55.400Z,65.30
2019-06-01T07:40:24.820Z,65.62
2019-06-01T07:42:54.247Z,63.77
2019-06-01T07:45:23.013Z,64.66
2019-06-01T07:47:51.585Z,63.67
2019-06-01T07:50:20.457Z,62.68
2019-06-01T07:52:49.390Z,61.64
2019-06-01T07:55:18.372Z,61.18
2019-06-01T07:57:47.267Z,61.82
2019-06-01T08:00:16.444Z,61.90
2019-06-01T08:02:45.096Z,61.45
2019-06-01T08:05:13.937Z,61.17
2019-06-01T08:07:42.830Z,61.86
2019-06-01T08:10:11.601Z,61.59
2019-06-01T08:12:40.821Z,60.44
2019-06-01T08:15:10.015Z,61.04
2019-06-01T08:17:39.319Z,60.18
2019-06-01T08:20:08.467Z,59.89
2019-06-01T08:22:37.216Z,59.17
2019-06-01T08:25:06.416Z,58.70
2019-06-01T08:27:35.397Z,59.92
2019-06-01T08:30:04.651Z,57.52
2019-06-01T08:32:33.892Z,58.10
2019-06-01T08:35:08.406Z,57.37
2019-06-01T08:37:33.660Z,57.67
2019-06-01T08:40:02.844Z,56.92
2019-06-01T08:42:31.821Z,56.21
2019-06-01T08:45:00.455Z,55.84
2019-06-01T08:47:29.999Z,55.87
2019-06-01T08:49:58.936Z,55.18
2019-06-01T08:52:28.101Z,54.12
2019-06-01T08:54:57.096Z,54.33
2019-06-01T08:57:26.085Z,54.64
2019-06-01T08:59:55.785Z,54.77
2019-06-01T09:02:24.792Z,55.68
2019-06-01T09:04:53.409Z,57.29
2019-06-01T09:07:22.373Z,57.07
2019-06-01T09:09:51.008Z,57.61
2019-06-01T09:12:20.056Z,58.02
2019-06-01T09:14:48.720Z,57.96
2019-06-01T09:17:18.845Z,58.28
2019-06-01T09:19:47.868Z,58.29
2019-06-01T09:22:16.887Z,58.97
2019-06-01T09:24:46.154Z,59.30
2019-06-01T09:27:15.142Z,58.31
2019-06-01T09:29:44.754Z,58.42
2019-06-01T09:32:13.954Z,58.38
2019-06-01T09:34:42.948Z,58.49
2019-06-01T09:37:11.936Z,58.42
2019-06-01T09:39:41.228Z,57.17
2019-06-01T09:42:09.851Z,57.79
2019-06-01T09:44:38.826Z,57.83
2019-06-01T09:47:07.476Z,57.98
2019-06-01T09:49:36.087Z,58.13
2019-06-01T09:52:04.890Z,58.59
2019-06-01T09:54:35.110Z,58.75
2019-06-01T09:57:04.793Z,59.27
2019-06-01T09:59:34.011Z,58.66
2019-06-01T10:02:03.226Z,57.94
2019-06-01T10:04:32.819Z,58.28
2019-06-01T10:07:01.465Z,58.34
2019-06-01T10:09:31.525Z,57.98
2019-06-01T10:12:00.530Z,58.80
2019-06-01T10:14:30.090Z,58.10
2019-06-01T10:16:59.311Z,58.16
2019-06-01T10:19:28.212Z,58.63
2019-06-01T10:21:56.892Z,58.54
2019-06-01T10:24:25.549Z,56.82
2019-06-01T10:26:54.783Z,55.88
2019-06-01T10:29:23.710Z,55.55
2019-06-01T10:31:52.662Z,56.73
2019-06-01T10:34:21.792Z,56.98
2019-06-01T10:36:50.516Z,56.02
2019-06-01T10:39:19.870Z,55.31
2019-06-01T10:41:48.659Z,55.00
2019-06-01T10:44:17.697Z,54.18
2019-06-01T10:46:46.628Z,53.77
2019-06-01T10:49:15.820Z,53.64
2019-06-01T10:51:44.711Z,53.87
2019-06-01T10:54:13.729Z,51.82
2019-06-01T10:56:42.609Z,51.63
2019-06-01T10:59:11.562Z,51.09
2019-06-01T11:01:40.951Z,51.32
2019-06-01T11:04:09.757Z,51.40
2019-06-01T11:06:44.886Z,50.00
2019-06-01T11:09:09.495Z,49.38
2019-06-01T11:11:39.098Z,50.67
2019-06-01T11:14:07.916Z,50.19
2019-06-01T11:16:37.300Z,49.88
2019-06-01T11:19:06.114Z,47.62
2019-06-01T11:21:35.521Z,49.69
2019-06-01T11:24:04.484Z,49.78
2019-06-01T11:26:33.401Z,52.62
2019-06-01T11:29:02.386Z,52.46
2019-06-01T11:31:31.378Z,51.62
2019-06-01T11:34:00.278Z,53.34
2019-06-01T11:36:29.245Z,52.39
2019-06-01T11:38:58.154Z,51.20
2019-06-01T11:41:27.049Z,51.26
2019-06-01T11:43:55.743Z,50.35
2019-06-01T11:46:25.034Z,48.33
2019-06-01T11:48:53.926Z,48.52
2019-06-01T11:51:22.615Z,48.56
2019-06-01T11:53:51.668Z,48.16
2019-06-01T11:56:20.266Z,49.93
2019-06-01T11:58:49.203Z,50.34
2019-06-01T12:01:18.488Z,50.23
2019-06-01T12:03:47.116Z,48.79
2019-06-01T12:06:15.744Z,47.90
2019-06-01T12:08:46.214Z,48.59
2019-06-01T12:11:15.484Z,49.06
2019-06-01T12:13:44.598Z,50.08
2019-06-01T12:16:13.460Z,50.33
2019-06-01T12:18:42.626Z,47.85
2019-06-01T12:21:11.484Z,47.16
2019-06-01T12:23:41.443Z,45.54
2019-06-01T12:26:10.936Z,45.15
2019-06-01T12:28:41.478Z,46.58
2019-06-01T12:31:11.043Z,47.05
2019-06-01T12:33:39.927Z,47.08
2019-06-01T12:36:09.247Z,45.22
2019-06-01T12:38:56.064Z,45.61
2019-06-01T12:41:27.541Z,46.52
2019-06-01T12:44:17.384Z,46.09
2019-06-01T12:46:46.962Z,44.39
2019-06-01T12:49:16.001Z,45.43
2019-06-01T12:51:44.836Z,47.18
2019-06-01T12:54:13.691Z,45.72
2019-06-01T12:56:42.880Z,45.67
2019-06-01T12:59:11.720Z,50.46
2019-06-01T13:01:41.100Z,48.81
2019-06-01T13:04:10.056Z,47.06
2019-06-01T13:06:38.778Z,45.88
2019-06-01T13:09:08.904Z,48.65
2019-06-01T13:11:37.669Z,49.74
2019-06-01T13:14:07.989Z,48.49
2019-06-01T13:16:36.797Z,47.43
2019-06-01T13:19:06.077Z,46.65
2019-06-01T13:21:34.905Z,46.23
2019-06-01T13:24:04.217Z,46.55
2019-06-01T13:26:33.236Z,45.44
2019-06-01T13:29:02.329Z,46.21
2019-06-01T13:31:31.427Z,46.29
2019-06-01T13:34:00.574Z,45.70
2019-06-01T13:36:29.623Z,45.44
2019-06-01T13:38:59.143Z,46.50
2019-06-01T13:41:27.848Z,45.45
2019-06-01T13:43:56.660Z,45.56
2019-06-01T13:46:25.732Z,46.14
2019-06-01T13:48:54.924Z,46.05
2019-06-01T13:51:23.656Z,44.38
2019-06-01T13:53:52.915Z,45.99
2019-06-01T13:56:21.967Z,44.58
2019-06-01T13:58:50.765Z,46.21
2019-06-01T14:01:19.444Z,45.56
2019-06-01T14:03:49.382Z,44.88
2019-06-01T14:06:18.733Z,44.53
2019-06-01T14:08:47.453Z,45.36
2019-06-01T14:11:16.583Z,44.83
2019-06-01T14:13:45.564Z,43.43
2019-06-01T14:16:14.677Z,44.37
2019-06-01T14:18:43.371Z,43.16
2019-06-01T14:21:12.420Z,42.45
2019-06-01T14:23:41.443Z,43.39
2019-06-01T14:26:10.405Z,43.71
2019-06-01T14:28:39.929Z,44.46
2019-06-01T14:31:08.705Z,42.85
2019-06-01T14:33:37.607Z,42.68
2019-06-01T14:36:06.330Z,43.03
2019-06-01T14:38:46.690Z,43.41
2019-06-01T14:41:06.037Z,43.61
2019-06-01T14:43:35.238Z,44.74
2019-06-01T14:46:04.272Z,45.43
2019-06-01T14:48:33.235Z,44.83
2019-06-01T14:51:02.198Z,44.86
2019-06-01T14:53:30.954Z,44.35
2019-06-01T14:55:59.991Z,44.15
2019-06-01T14:58:28.788Z,48.00
2019-06-01T15:00:58.587Z,47.83
2019-06-01T15:03:27.614Z,50.49
2019-06-01T15:05:56.608Z,50.74
2019-06-01T15:08:27.008Z,49.72
2019-06-01T15:10:57.044Z,50.88
2019-06-01T15:13:25.981Z,51.08
2019-06-01T15:15:55.618Z,50.08
2019-06-01T15:18:24.535Z,50.32
2019-06-01T15:20:53.794Z,52.05
2019-06-01T15:23:22.782Z,51.40
2019-06-01T15:25:52.362Z,50.74
2019-06-01T15:28:21.550Z,51.08
2019-06-01T15:30:50.893Z,51.41
2019-06-01T15:33:21.368Z,51.69
2019-06-01T15:35:52.118Z,51.31
2019-06-01T15:38:21.019Z,50.98
2019-06-01T15:40:49.743Z,51.92
2019-06-01T15:43:18.767Z,51.15
2019-06-01T15:45:47.848Z,51.15
2019-06-01T15:48:16.565Z,51.13
2019-06-01T15:50:45.561Z,50.14
2019-06-01T15:53:14.931Z,50.33
2019-06-01T15:55:44.305Z,50.63
2019-06-01T15:58:13.734Z,51.15
2019-06-01T16:00:42.484Z,50.74
2019-06-01T16:03:11.133Z,51.06
2019-06-01T16:05:39.900Z,52.49
2019-06-01T16:08:08.995Z,51.39
2019-06-01T16:10:37.826Z,52.58
2019-06-01T16:13:06.516Z,52.49
2019-06-01T16:15:35.532Z,53.10
2019-06-01T16:18:04.438Z,53.32
2019-06-01T16:20:33.572Z,54.44
2019-06-01T16:23:02.606Z,55.37
2019-06-01T16:25:34.055Z,53.40
2019-06-01T16:28:03.906Z,53.89
2019-06-01T16:30:37.429Z,55.27
2019-06-01T16:33:06.226Z,53.82
2019-06-01T16:35:35.192Z,53.01
2019-06-01T16:38:05.729Z,54.06
2019-06-01T16:40:35.258Z,52.44
2019-06-01T16:43:05.589Z,53.45
2019-06-01T16:45:34.865Z,53.37
2019-06-01T16:48:03.843Z,54.06
2019-06-01T16:50:32.560Z,53.84
2019-06-01T16:53:02.123Z,54.30
2019-06-01T16:55:31.636Z,54.32
2019-06-01T16:58:01.211Z,56.16
2019-06-01T17:00:30.455Z,54.92
2019-06-01T17:02:59.159Z,56.81
2019-06-01T17:05:27.809Z,57.66
2019-06-01T17:07:56.828Z,56.28
2019-06-01T17:10:26.678Z,56.69
2019-06-01T17:12:56.828Z,56.10
2019-06-01T17:15:26.472Z,56.51
2019-06-01T17:17:56.881Z,55.93
2019-06-01T17:20:51.508Z,57.32
2019-06-01T17:23:26.758Z,58.85
2019-06-01T17:25:50.620Z,57.05
2019-06-01T17:28:19.727Z,57.39
2019-06-01T17:30:48.988Z,56.57
2019-06-01T17:33:18.926Z,59.29
2019-06-01T17:35:47.923Z,57.00
2019-06-01T17:38:16.576Z,59.19
2019-06-01T17:40:45.902Z,59.50
2019-06-01T17:43:15.111Z,60.09
2019-06-01T17:45:43.921Z,58.98
2019-06-01T17:48:25.213Z,60.21
2019-06-01T17:50:43.153Z,60.50
2019-06-01T17:53:13.021Z,59.71
2019-06-01T17:55:42.632Z,60.47
2019-06-01T17:58:12.512Z,60.86
2019-06-01T18:00:42.095Z,62.83
2019-06-01T18:03:12.047Z,63.60
2019-06-01T18:05:41.232Z,64.84
2019-06-01T18:08:10.435Z,64.69
2019-06-01T18:10:52.398Z,65.91
2019-06-01T18:13:10.576Z,66.60
2019-06-01T18:15:39.793Z,68.02
2019-06-01T18:18:10.360Z,67.52
2019-06-01T18:20:39.319Z,66.72
2019-06-01T18:23:10.124Z,65.40
2019-06-01T18:25:38.891Z,65.82
2019-06-01T18:28:14.651Z,65.71
2019-06-01T18:30:38.610Z,67.26
2019-06-01T18:33:07.325Z,67.83
2019-06-01T18:35:36.851Z,68.12
2019-06-01T18:38:05.973Z,69.25
2019-06-01T18:40:34.967Z,69.37
2019-06-01T18:43:07.842Z,69.51
2019-06-01T18:45:37.199Z,70.20
2019-06-01T18:48:06.239Z,70.03
2019-06-01T18:50:35.863Z,69.30
2019-06-01T18:53:06.033Z,70.02
2019-06-01T18:55:35.884Z,70.75
2019-06-01T18:58:06.393Z,70.40
2019-06-01T19:00:39.342Z,71.52
2019-06-01T19:03:07.235Z,71.29
2019-06-01T19:05:36.210Z,71.33
2019-06-01T19:08:05.152Z,71.45
2019-06-01T19:10:34.217Z,71.92
2019-06-01T19:13:02.881Z,71.83
2019-06-01T19:15:31.828Z,71.82
2019-06-01T19:18:00.811Z,71.91
2019-06-01T19:20:33.184Z,71.74
2019-06-01T19:23:00.643Z,71.59
2019-06-01T19:25:29.328Z,71.61
2019-06-01T19:27:58.009Z,71.31
2019-06-01T19:30:37.916Z,71.01
2019-06-01T19:33:11.015Z,72.74
2019-06-01T19:35:38.943Z,72.64
2019-06-01T19:38:08.947Z,73.01
2019-06-01T19:40:39.397Z,72.69
2019-06-01T19:43:09.440Z,72.66
2019-06-01T19:45:38.206Z,72.85
2019-06-01T19:48:08.232Z,73.79
2019-06-01T19:50:37.105Z,74.55
2019-06-01T19:53:06.099Z,74.10
2019-06-01T19:55:35.395Z,74.38
2019-06-01T19:58:04.354Z,74.56
2019-06-01T20:00:33.567Z,74.95
2019-06-01T20:03:02.845Z,75.87
2019-06-01T20:05:32.282Z,77.07
2019-06-01T20:08:01.310Z,77.21
2019-06-01T20:10:30.491Z,77.04
2019-06-01T20:12:59.552Z,76.66
2019-06-01T20:15:29.410Z,77.31
2019-06-01T20:17:58.927Z,77.92
2019-06-01T20:20:27.751Z,78.04
2019-06-01T20:22:57.213Z,77.88
2019-06-01T20:25:26.206Z,77.63
2019-06-01T20:27:54.998Z,77.33
2019-06-01T20:30:24.293Z,76.97
2019-06-01T20:32:53.017Z,77.57
2019-06-01T20:35:22.196Z,77.67
2019-06-01T20:37:51.099Z,77.72
2019-06-01T20:40:20.465Z,77.40
2019-06-01T20:42:49.228Z,77.64
2019-06-01T20:45:18.783Z,77.37
2019-06-01T20:47:47.646Z,77.29
2019-06-01T20:50:18.683Z,77.25
2019-06-01T20:52:47.729Z,78.57
2019-06-01T20:55:19.134Z,78.48
2019-06-01T20:57:48.089Z,78.44
2019-06-01T21:00:17.777Z,78.64
2019-06-01T21:02:46.794Z,78.91
2019-06-01T21:05:15.863Z,79.74
2019-06-01T21:07:44.930Z,80.37
2019-06-01T21:10:14.423Z,80.80
2019-06-01T21:12:45.649Z,80.92
2019-06-01T21:15:15.084Z,81.53
2019-06-01T21:17:44.577Z,81.76
2019-06-01T21:20:18.780Z,82.22
2019-06-01T21:22:44.306Z,82.43
2019-06-01T21:25:14.743Z,82.51
2019-06-01T21:27:44.233Z,82.30
2019-06-01T21:30:14.738Z,82.86
2019-06-01T21:32:44.178Z,82.97
2019-06-01T21:35:13.166Z,83.34
2019-06-01T21:37:42.787Z,83.23
2019-06-01T21:40:11.687Z,83.89
2019-06-01T21:42:40.851Z,83.81
2019-06-01T21:45:10.885Z,83.97
2019-06-01T21:47:40.392Z,84.17
2019-06-01T21:50:10.000Z,84.14
2019-06-01T21:52:39.142Z,84.83
2019-06-01T21:55:08.675Z,84.78
2019-06-01T21:57:37.680Z,84.41
2019-06-01T22:00:08.384Z,84.29
2019-06-01T22:02:37.271Z,84.79
2019-06-01T22:05:06.574Z,84.84
2019-06-01T22:07:35.821Z,84.83
2019-06-01T22:10:05.171Z,85.63
2019-06-01T22:12:34.129Z,85.79
2019-06-01T22:15:03.030Z,85.62
2019-06-01T22:17:32.015Z,86.47
2019-06-01T22:20:00.649Z,86.58
2019-06-01T22:22:29.304Z,86.80
2019-06-01T22:24:58.605Z,86.84
2019-06-01T22:27:28.515Z,87.43
2019-06-01T22:29:57.484Z,87.17
2019-06-01T22:32:29.533Z,87.21
2019-06-01T22:34:56.821Z,87.31
2019-06-01T22:37:25.867Z,87.55
2019-06-01T22:39:54.447Z,87.85
2019-06-01T22:42:24.297Z,88.10
2019-06-01T22:44:53.010Z,88.46
2019-06-01T22:47:22.475Z,88.75
2019-06-01T22:49:51.291Z,88.83
2019-06-01T22:52:20.980Z,88.96
2019-06-01T22:54:49.807Z,89.01
2019-06-01T22:57:18.443Z,89.25
2019-06-01T22:59:47.356Z,88.07
2019-06-01T23:02:16.248Z,88.20
2019-06-01T23:04:45.154Z,87.91
2019-06-01T23:07:13.775Z,88.28
2019-06-01T23:09:42.394Z,87.95
2019-06-01T23:12:11.112Z,87.84
2019-06-01T23:14:40.708Z,87.92
2019-06-01T23:17:10.003Z,87.94
2019-06-01T23:19:39.099Z,87.70
2019-06-01T23:22:08.178Z,87.46
2019-06-01T23:24:36.789Z,87.19
2019-06-01T23:27:05.581Z,87.40
2019-06-01T23:29:34.977Z,87.49
2019-06-01T23:32:03.880Z,87.56
2019-06-01T23:34:32.832Z,87.74
2019-06-01T23:37:01.593Z,88.05
2019-06-01T23:39:30.847Z,88.11
2019-06-01T23:41:59.947Z,88.32
2019-06-01T23:44:31.911Z,88.50
2019-06-01T23:46:59.566Z,88.96
2019-06-01T23:49:29.243Z,88.78
2019-06-01T23:51:58.378Z,85.41
2019-06-01T23:54:27.858Z,84.15
2019-06-01T23:56:56.788Z,84.02
2019-06-01T23:59:27.942Z,83.60
